sensor_id;sensor_type;location;lat;lon;timestamp;pressure;altitude;pressure_sealevel;temperature
75811;BMP280;64449;50.016;19.954;2024-01-10T00:01:48;100311.34;;;-11.34
75811;BMP280;64449;50.016;19.954;2024-01-10T00:04:13;100314.45;;;-11.41
75811;BMP280;64449;50.016;19.954;2024-01-10T00:06:42;100311.55;;;-11.48
75811;BMP280;64449;50.016;19.954;2024-01-10T00:09:08;100310.60;;;-11.53
75811;BMP280;64449;50.016;19.954;2024-01-10T00:11:34;100309.60;;;-11.58
75811;BMP280;64449;50.016;19.954;2024-01-10T00:13:59;100305.97;;;-11.62
75811;BMP280;64449;50.016;19.954;2024-01-10T00:16:27;100305.51;;;-11.65
75811;BMP280;64449;50.016;19.954;2024-01-10T00:18:53;100307.73;;;-11.68
75811;BMP280;64449;50.016;19.954;2024-01-10T00:21:18;100310.93;;;-11.72
75811;BMP280;64449;50.016;19.954;2024-01-10T00:23:44;100307.37;;;-11.75
75811;BMP280;64449;50.016;19.954;2024-01-10T00:26:09;100303.07;;;-11.78
75811;BMP280;64449;50.016;19.954;2024-01-10T00:28:35;100304.80;;;-11.81
75811;BMP280;64449;50.016;19.954;2024-01-10T00:31:00;100308.13;;;-11.82
75811;BMP280;64449;50.016;19.954;2024-01-10T00:33:25;100307.44;;;-11.85
75811;BMP280;64449;50.016;19.954;2024-01-10T00:35:51;100310.27;;;-11.87
75811;BMP280;64449;50.016;19.954;2024-01-10T00:38:16;100304.65;;;-11.90
75811;BMP280;64449;50.016;19.954;2024-01-10T00:40:42;100301.55;;;-11.92
75811;BMP280;64449;50.016;19.954;2024-01-10T00:43:07;100298.69;;;-11.94
75811;BMP280;64449;50.016;19.954;2024-01-10T00:45:32;100300.67;;;-11.95
75811;BMP280;64449;50.016;19.954;2024-01-10T00:47:58;100301.93;;;-11.95
75811;BMP280;64449;50.016;19.954;2024-01-10T00:50:24;100306.26;;;-11.94
75811;BMP280;64449;50.016;19.954;2024-01-10T00:52:49;100307.65;;;-11.93
75811;BMP280;64449;50.016;19.954;2024-01-10T00:55:15;100304.23;;;-11.92
75811;BMP280;64449;50.016;19.954;2024-01-10T00:57:40;100309.41;;;-11.91
75811;BMP280;64449;50.016;19.954;2024-01-10T01:00:07;100308.45;;;-11.91
75811;BMP280;64449;50.016;19.954;2024-01-10T01:02:33;100311.47;;;-11.91
75811;BMP280;64449;50.016;19.954;2024-01-10T01:04:58;100309.52;;;-11.90
75811;BMP280;64449;50.016;19.954;2024-01-10T01:07:23;100309.02;;;-11.87
75811;BMP280;64449;50.016;19.954;2024-01-10T01:09:49;100309.49;;;-11.84
75811;BMP280;64449;50.016;19.954;2024-01-10T01:12:14;100311.88;;;-11.81
75811;BMP280;64449;50.016;19.954;2024-01-10T01:14:40;100310.57;;;-11.79
75811;BMP280;64449;50.016;19.954;2024-01-10T01:17:05;100307.91;;;-11.75
75811;BMP280;64449;50.016;19.954;2024-01-10T01:19:30;100313.54;;;-11.72
75811;BMP280;64449;50.016;19.954;2024-01-10T01:21:56;100307.64;;;-11.69
75811;BMP280;64449;50.016;19.954;2024-01-10T01:24:21;100307.28;;;-11.68
75811;BMP280;64449;50.016;19.954;2024-01-10T01:26:47;100310.66;;;-11.67
75811;BMP280;64449;50.016;19.954;2024-01-10T01:29:12;100311.39;;;-11.67
75811;BMP280;64449;50.016;19.954;2024-01-10T01:31:37;100317.88;;;-11.67
75811;BMP280;64449;50.016;19.954;2024-01-10T01:34:03;100313.17;;;-11.66
75811;BMP280;64449;50.016;19.954;2024-01-10T01:36:29;100307.42;;;-11.66
75811;BMP280;64449;50.016;19.954;2024-01-10T01:38:54;100308.30;;;-11.69
75811;BMP280;64449;50.016;19.954;2024-01-10T01:41:19;100297.86;;;-11.79
75811;BMP280;64449;50.016;19.954;2024-01-10T01:43:45;100294.29;;;-11.89
75811;BMP280;64449;50.016;19.954;2024-01-10T01:46:11;100288.06;;;-11.96
75811;BMP280;64449;50.016;19.954;2024-01-10T01:48:37;100282.00;;;-12.04
75811;BMP280;64449;50.016;19.954;2024-01-10T01:51:05;100280.41;;;-12.13
75811;BMP280;64449;50.016;19.954;2024-01-10T01:53:36;100280.22;;;-12.16
75811;BMP280;64449;50.016;19.954;2024-01-10T01:56:05;100277.86;;;-12.18
75811;BMP280;64449;50.016;19.954;2024-01-10T01:58:32;100278.95;;;-12.19
75811;BMP280;64449;50.016;19.954;2024-01-10T02:00:57;100273.23;;;-12.20
75811;BMP280;64449;50.016;19.954;2024-01-10T02:03:23;100280.20;;;-12.22
75811;BMP280;64449;50.016;19.954;2024-01-10T02:05:49;100277.08;;;-12.23
75811;BMP280;64449;50.016;19.954;2024-01-10T02:08:15;100280.02;;;-12.24
75811;BMP280;64449;50.016;19.954;2024-01-10T02:10:40;100281.35;;;-12.26
75811;BMP280;64449;50.016;19.954;2024-01-10T02:13:06;100284.14;;;-12.26
75811;BMP280;64449;50.016;19.954;2024-01-10T02:15:37;100281.17;;;-12.25
75811;BMP280;64449;50.016;19.954;2024-01-10T02:18:03;100278.30;;;-12.24
75811;BMP280;64449;50.016;19.954;2024-01-10T02:20:30;100279.49;;;-12.26
75811;BMP280;64449;50.016;19.954;2024-01-10T02:22:56;100283.48;;;-12.24
75811;BMP280;64449;50.016;19.954;2024-01-10T02:25:21;100281.35;;;-12.22
75811;BMP280;64449;50.016;19.954;2024-01-10T02:27:46;100280.73;;;-12.20
75811;BMP280;64449;50.016;19.954;2024-01-10T02:30:12;100274.55;;;-12.20
75811;BMP280;64449;50.016;19.954;2024-01-10T02:32:37;100276.34;;;-12.17
75811;BMP280;64449;50.016;19.954;2024-01-10T02:35:03;100273.60;;;-12.15
75811;BMP280;64449;50.016;19.954;2024-01-10T02:37:29;100264.15;;;-12.13
75811;BMP280;64449;50.016;19.954;2024-01-10T02:39:54;100266.98;;;-12.12
75811;BMP280;64449;50.016;19.954;2024-01-10T02:42:20;100260.98;;;-12.14
75811;BMP280;64449;50.016;19.954;2024-01-10T02:44:45;100254.24;;;-12.13
75811;BMP280;64449;50.016;19.954;2024-01-10T02:47:11;100248.23;;;-12.11
75811;BMP280;64449;50.016;19.954;2024-01-10T02:49:37;100259.12;;;-12.11
75811;BMP280;64449;50.016;19.954;2024-01-10T02:52:03;100262.10;;;-12.11
75811;BMP280;64449;50.016;19.954;2024-01-10T02:54:28;100260.94;;;-12.11
75811;BMP280;64449;50.016;19.954;2024-01-10T02:56:53;100256.77;;;-12.11
75811;BMP280;64449;50.016;19.954;2024-01-10T02:59:19;100254.10;;;-12.11
75811;BMP280;64449;50.016;19.954;2024-01-10T03:01:44;100254.00;;;-12.11
75811;BMP280;64449;50.016;19.954;2024-01-10T03:04:10;100250.26;;;-12.11
75811;BMP280;64449;50.016;19.954;2024-01-10T03:06:35;100241.61;;;-12.11
75811;BMP280;64449;50.016;19.954;2024-01-10T03:09:01;100237.19;;;-12.14
75811;BMP280;64449;50.016;19.954;2024-01-10T03:11:26;100236.36;;;-12.24
75811;BMP280;64449;50.016;19.954;2024-01-10T03:14:01;100234.84;;;-12.34
75811;BMP280;64449;50.016;19.954;2024-01-10T03:16:27;100231.66;;;-12.41
75811;BMP280;64449;50.016;19.954;2024-01-10T03:18:53;100230.73;;;-12.45
75811;BMP280;64449;50.016;19.954;2024-01-10T03:21:18;100223.33;;;-12.48
75811;BMP280;64449;50.016;19.954;2024-01-10T03:23:50;100225.19;;;-12.51
75811;BMP280;64449;50.016;19.954;2024-01-10T03:26:16;100221.23;;;-12.59
75811;BMP280;64449;50.016;19.954;2024-01-10T03:28:42;100218.73;;;-12.65
75811;BMP280;64449;50.016;19.954;2024-01-10T03:31:07;100219.73;;;-12.68
75811;BMP280;64449;50.016;19.954;2024-01-10T03:33:32;100216.31;;;-12.68
75811;BMP280;64449;50.016;19.954;2024-01-10T03:35:58;100210.73;;;-12.67
75811;BMP280;64449;50.016;19.954;2024-01-10T03:38:23;100213.02;;;-12.66
75811;BMP280;64449;50.016;19.954;2024-01-10T03:40:49;100219.35;;;-12.66
75811;BMP280;64449;50.016;19.954;2024-01-10T03:43:14;100218.21;;;-12.69
75811;BMP280;64449;50.016;19.954;2024-01-10T03:45:42;100222.63;;;-12.72
75811;BMP280;64449;50.016;19.954;2024-01-10T03:48:07;100225.88;;;-12.74
75811;BMP280;64449;50.016;19.954;2024-01-10T03:50:33;100226.11;;;-12.74
75811;BMP280;64449;50.016;19.954;2024-01-10T03:52:58;100221.03;;;-12.72
75811;BMP280;64449;50.016;19.954;2024-01-10T03:55:24;100221.25;;;-12.71
75811;BMP280;64449;50.016;19.954;2024-01-10T03:57:49;100219.07;;;-12.72
75811;BMP280;64449;50.016;19.954;2024-01-10T04:00:14;100217.29;;;-12.77
75811;BMP280;64449;50.016;19.954;2024-01-10T04:02:40;100210.92;;;-12.79
75811;BMP280;64449;50.016;19.954;2024-01-10T04:05:07;100209.39;;;-12.82
75811;BMP280;64449;50.016;19.954;2024-01-10T04:07:33;100203.88;;;-12.83
75811;BMP280;64449;50.016;19.954;2024-01-10T04:09:59;100205.16;;;-12.81
75811;BMP280;64449;50.016;19.954;2024-01-10T04:12:24;100200.31;;;-12.80
75811;BMP280;64449;50.016;19.954;2024-01-10T04:14:50;100202.09;;;-12.77
75811;BMP280;64449;50.016;19.954;2024-01-10T04:17:15;100196.49;;;-12.75
75811;BMP280;64449;50.016;19.954;2024-01-10T04:19:40;100201.09;;;-12.74
75811;BMP280;64449;50.016;19.954;2024-01-10T04:22:06;100203.62;;;-12.72
75811;BMP280;64449;50.016;19.954;2024-01-10T04:24:31;100208.43;;;-12.69
75811;BMP280;64449;50.016;19.954;2024-01-10T04:26:56;100212.38;;;-12.66
75811;BMP280;64449;50.016;19.954;2024-01-10T04:29:22;100204.95;;;-12.65
75811;BMP280;64449;50.016;19.954;2024-01-10T04:31:47;100204.42;;;-12.66
75811;BMP280;64449;50.016;19.954;2024-01-10T04:34:14;100200.85;;;-12.67
75811;BMP280;64449;50.016;19.954;2024-01-10T04:36:39;100203.32;;;-12.66
75811;BMP280;64449;50.016;19.954;2024-01-10T04:39:04;100204.11;;;-12.64
75811;BMP280;64449;50.016;19.954;2024-01-10T04:41:30;100204.44;;;-12.64
75811;BMP280;64449;50.016;19.954;2024-01-10T04:43:55;100205.61;;;-12.63
75811;BMP280;64449;50.016;19.954;2024-01-10T04:46:21;100206.81;;;-12.62
75811;BMP280;64449;50.016;19.954;2024-01-10T04:48:46;100203.35;;;-12.60
75811;BMP280;64449;50.016;19.954;2024-01-10T04:51:12;100212.63;;;-12.59
75811;BMP280;64449;50.016;19.954;2024-01-10T04:53:38;100213.38;;;-12.58
75811;BMP280;64449;50.016;19.954;2024-01-10T04:56:03;100218.59;;;-12.61
75811;BMP280;64449;50.016;19.954;2024-01-10T04:58:29;100210.66;;;-12.62
75811;BMP280;64449;50.016;19.954;2024-01-10T05:00:55;100213.32;;;-12.62
75811;BMP280;64449;50.016;19.954;2024-01-10T05:03:20;100206.80;;;-12.61
75811;BMP280;64449;50.016;19.954;2024-01-10T05:05:45;100211.39;;;-12.60
75811;BMP280;64449;50.016;19.954;2024-01-10T05:08:11;100209.78;;;-12.60
75811;BMP280;64449;50.016;19.954;2024-01-10T05:10:36;100213.62;;;-12.63
75811;BMP280;64449;50.016;19.954;2024-01-10T05:13:02;100211.83;;;-12.66
75811;BMP280;64449;50.016;19.954;2024-01-10T05:15:27;100221.36;;;-12.68
75811;BMP280;64449;50.016;19.954;2024-01-10T05:17:53;100227.02;;;-12.71
75811;BMP280;64449;50.016;19.954;2024-01-10T05:20:18;100225.78;;;-12.70
75811;BMP280;64449;50.016;19.954;2024-01-10T05:22:44;100222.13;;;-12.69
75811;BMP280;64449;50.016;19.954;2024-01-10T05:25:09;100223.59;;;-12.69
75811;BMP280;64449;50.016;19.954;2024-01-10T05:27:35;100224.58;;;-12.68
75811;BMP280;64449;50.016;19.954;2024-01-10T05:30:00;100219.07;;;-12.68
75811;BMP280;64449;50.016;19.954;2024-01-10T05:32:26;100221.83;;;-12.70
75811;BMP280;64449;50.016;19.954;2024-01-10T05:34:53;100221.48;;;-12.72
75811;BMP280;64449;50.016;19.954;2024-01-10T05:37:18;100221.05;;;-12.72
75811;BMP280;64449;50.016;19.954;2024-01-10T05:39:44;100223.61;;;-12.69
75811;BMP280;64449;50.016;19.954;2024-01-10T05:42:09;100223.29;;;-12.68
75811;BMP280;64449;50.016;19.954;2024-01-10T05:44:36;100230.84;;;-12.66
75811;BMP280;64449;50.016;19.954;2024-01-10T05:47:01;100229.08;;;-12.66
75811;BMP280;64449;50.016;19.954;2024-01-10T05:49:27;100221.04;;;-12.65
75811;BMP280;64449;50.016;19.954;2024-01-10T05:51:53;100221.72;;;-12.63
75811;BMP280;64449;50.016;19.954;2024-01-10T05:54:18;100228.77;;;-12.66
75811;BMP280;64449;50.016;19.954;2024-01-10T05:56:44;100229.63;;;-12.67
75811;BMP280;64449;50.016;19.954;2024-01-10T05:59:09;100230.90;;;-12.69
75811;BMP280;64449;50.016;19.954;2024-01-10T06:01:37;100225.05;;;-12.70
75811;BMP280;64449;50.016;19.954;2024-01-10T06:04:06;100220.67;;;-12.72
75811;BMP280;64449;50.016;19.954;2024-01-10T06:06:31;100226.73;;;-12.74
75811;BMP280;64449;50.016;19.954;2024-01-10T06:08:58;100226.16;;;-12.78
75811;BMP280;64449;50.016;19.954;2024-01-10T06:11:23;100225.35;;;-12.82
75811;BMP280;64449;50.016;19.954;2024-01-10T06:13:49;100224.61;;;-12.83
75811;BMP280;64449;50.016;19.954;2024-01-10T06:16:15;100227.38;;;-12.85
75811;BMP280;64449;50.016;19.954;2024-01-10T06:18:40;100232.29;;;-12.88
75811;BMP280;64449;50.016;19.954;2024-01-10T06:21:06;100238.05;;;-12.90
75811;BMP280;64449;50.016;19.954;2024-01-10T06:23:31;100238.48;;;-12.91
75811;BMP280;64449;50.016;19.954;2024-01-10T06:25:56;100241.07;;;-12.92
75811;BMP280;64449;50.016;19.954;2024-01-10T06:28:22;100237.95;;;-12.93
75811;BMP280;64449;50.016;19.954;2024-01-10T06:30:49;100238.98;;;-12.94
75811;BMP280;64449;50.016;19.954;2024-01-10T06:33:15;100238.27;;;-12.95
75811;BMP280;64449;50.016;19.954;2024-01-10T06:35:41;100240.80;;;-12.96
75811;BMP280;64449;50.016;19.954;2024-01-10T06:38:10;100244.08;;;-12.94
75811;BMP280;64449;50.016;19.954;2024-01-10T06:40:35;100245.09;;;-12.92
75811;BMP280;64449;50.016;19.954;2024-01-10T06:43:02;100241.89;;;-12.89
75811;BMP280;64449;50.016;19.954;2024-01-10T06:45:28;100239.83;;;-12.87
75811;BMP280;64449;50.016;19.954;2024-01-10T06:47:53;100241.47;;;-12.89
75811;BMP280;64449;50.016;19.954;2024-01-10T06:50:19;100240.83;;;-12.98
75811;BMP280;64449;50.016;19.954;2024-01-10T06:52:45;100235.64;;;-13.03
75811;BMP280;64449;50.016;19.954;2024-01-10T06:55:11;100232.71;;;-13.07
75811;BMP280;64449;50.016;19.954;2024-01-10T06:57:36;100227.02;;;-13.12
75811;BMP280;64449;50.016;19.954;2024-01-10T07:00:03;100227.59;;;-13.20
75811;BMP280;64449;50.016;19.954;2024-01-10T07:02:28;100225.73;;;-13.23
75811;BMP280;64449;50.016;19.954;2024-01-10T07:04:54;100226.98;;;-13.21
75811;BMP280;64449;50.016;19.954;2024-01-10T07:07:19;100229.34;;;-13.16
75811;BMP280;64449;50.016;19.954;2024-01-10T07:09:44;100230.39;;;-13.11
75811;BMP280;64449;50.016;19.954;2024-01-10T07:12:10;100221.55;;;-13.06
75811;BMP280;64449;50.016;19.954;2024-01-10T07:14:36;100221.27;;;-13.05
75811;BMP280;64449;50.016;19.954;2024-01-10T07:17:01;100220.73;;;-13.02
75811;BMP280;64449;50.016;19.954;2024-01-10T07:19:26;100215.34;;;-12.97
75811;BMP280;64449;50.016;19.954;2024-01-10T07:21:52;100221.94;;;-12.91
75811;BMP280;64449;50.016;19.954;2024-01-10T07:24:19;100221.63;;;-12.83
75811;BMP280;64449;50.016;19.954;2024-01-10T07:26:44;100220.96;;;-12.75
75811;BMP280;64449;50.016;19.954;2024-01-10T07:29:10;100225.84;;;-12.71
75811;BMP280;64449;50.016;19.954;2024-01-10T07:31:35;100228.08;;;-12.62
75811;BMP280;64449;50.016;19.954;2024-01-10T07:34:01;100228.19;;;-12.53
75811;BMP280;64449;50.016;19.954;2024-01-10T07:36:30;100230.95;;;-12.45
75811;BMP280;64449;50.016;19.954;2024-01-10T07:38:58;100226.69;;;-12.40
75811;BMP280;64449;50.016;19.954;2024-01-10T07:41:24;100223.98;;;-12.30
75811;BMP280;64449;50.016;19.954;2024-01-10T07:43:50;100227.73;;;-12.22
75811;BMP280;64449;50.016;19.954;2024-01-10T07:46:15;100233.04;;;-12.11
75811;BMP280;64449;50.016;19.954;2024-01-10T07:48:40;100236.93;;;-11.99
75811;BMP280;64449;50.016;19.954;2024-01-10T07:51:06;100242.98;;;-11.86
75811;BMP280;64449;50.016;19.954;2024-01-10T07:53:32;100239.24;;;-11.73
75811;BMP280;64449;50.016;19.954;2024-01-10T07:55:57;100236.37;;;-11.59
75811;BMP280;64449;50.016;19.954;2024-01-10T07:58:22;100231.70;;;-11.43
75811;BMP280;64449;50.016;19.954;2024-01-10T08:00:48;100234.55;;;-11.26
75811;BMP280;64449;50.016;19.954;2024-01-10T08:03:13;100237.28;;;-11.06
75811;BMP280;64449;50.016;19.954;2024-01-10T08:05:39;100239.30;;;-10.90
75811;BMP280;64449;50.016;19.954;2024-01-10T08:08:04;100235.63;;;-10.73
75811;BMP280;64449;50.016;19.954;2024-01-10T08:10:30;100235.71;;;-10.57
75811;BMP280;64449;50.016;19.954;2024-01-10T08:12:55;100237.00;;;-10.39
75811;BMP280;64449;50.016;19.954;2024-01-10T08:15:22;100237.02;;;-10.18
75811;BMP280;64449;50.016;19.954;2024-01-10T08:17:47;100239.77;;;-9.96
75811;BMP280;64449;50.016;19.954;2024-01-10T08:20:13;100240.75;;;-9.74
75811;BMP280;64449;50.016;19.954;2024-01-10T08:22:40;100237.89;;;-9.52
75811;BMP280;64449;50.016;19.954;2024-01-10T08:25:06;100238.15;;;-9.30
75811;BMP280;64449;50.016;19.954;2024-01-10T08:27:32;100240.80;;;-9.07
75811;BMP280;64449;50.016;19.954;2024-01-10T08:29:59;100241.02;;;-8.83
75811;BMP280;64449;50.016;19.954;2024-01-10T08:32:24;100245.13;;;-8.59
75811;BMP280;64449;50.016;19.954;2024-01-10T08:34:50;100246.33;;;-8.35
75811;BMP280;64449;50.016;19.954;2024-01-10T08:37:15;100246.93;;;-8.12
75811;BMP280;64449;50.016;19.954;2024-01-10T08:39:43;100253.64;;;-7.87
75811;BMP280;64449;50.016;19.954;2024-01-10T08:42:09;100255.84;;;-7.63
75811;BMP280;64449;50.016;19.954;2024-01-10T08:44:35;100252.73;;;-7.40
75811;BMP280;64449;50.016;19.954;2024-01-10T08:47:00;100250.00;;;-7.19
75811;BMP280;64449;50.016;19.954;2024-01-10T08:49:26;100248.49;;;-6.96
75811;BMP280;64449;50.016;19.954;2024-01-10T08:51:52;100245.40;;;-6.75
75811;BMP280;64449;50.016;19.954;2024-01-10T08:54:19;100244.08;;;-6.54
75811;BMP280;64449;50.016;19.954;2024-01-10T08:56:48;100239.63;;;-6.37
75811;BMP280;64449;50.016;19.954;2024-01-10T08:59:13;100235.79;;;-6.23
75811;BMP280;64449;50.016;19.954;2024-01-10T09:01:39;100236.15;;;-6.05
75811;BMP280;64449;50.016;19.954;2024-01-10T09:04:05;100241.15;;;-5.86
75811;BMP280;64449;50.016;19.954;2024-01-10T09:06:34;100241.32;;;-5.67
75811;BMP280;64449;50.016;19.954;2024-01-10T09:09:01;100235.23;;;-5.47
75811;BMP280;64449;50.016;19.954;2024-01-10T09:11:26;100231.65;;;-5.32
75811;BMP280;64449;50.016;19.954;2024-01-10T09:13:52;100231.92;;;-5.18
75811;BMP280;64449;50.016;19.954;2024-01-10T09:16:17;100232.19;;;-5.04
75811;BMP280;64449;50.016;19.954;2024-01-10T09:18:46;100226.63;;;-4.90
75811;BMP280;64449;50.016;19.954;2024-01-10T09:21:11;100231.45;;;-4.77
75811;BMP280;64449;50.016;19.954;2024-01-10T09:23:37;100228.32;;;-4.62
75811;BMP280;64449;50.016;19.954;2024-01-10T09:26:03;100229.15;;;-4.49
75811;BMP280;64449;50.016;19.954;2024-01-10T09:28:28;100232.59;;;-4.35
75811;BMP280;64449;50.016;19.954;2024-01-10T09:30:54;100225.19;;;-4.20
75811;BMP280;64449;50.016;19.954;2024-01-10T09:33:20;100221.96;;;-4.04
75811;BMP280;64449;50.016;19.954;2024-01-10T09:35:46;100222.46;;;-3.87
75811;BMP280;64449;50.016;19.954;2024-01-10T09:38:12;100218.06;;;-3.71
75811;BMP280;64449;50.016;19.954;2024-01-10T09:40:38;100213.98;;;-3.54
75811;BMP280;64449;50.016;19.954;2024-01-10T09:43:05;100213.31;;;-3.39
75811;BMP280;64449;50.016;19.954;2024-01-10T09:45:31;100209.38;;;-3.22
75811;BMP280;64449;50.016;19.954;2024-01-10T09:48:00;100197.25;;;-3.04
75811;BMP280;64449;50.016;19.954;2024-01-10T09:50:26;100194.52;;;-2.84
75811;BMP280;64449;50.016;19.954;2024-01-10T09:52:56;100189.52;;;-2.66
75811;BMP280;64449;50.016;19.954;2024-01-10T09:55:26;100188.09;;;-2.60
75811;BMP280;64449;50.016;19.954;2024-01-10T09:57:55;100193.17;;;-2.56
75811;BMP280;64449;50.016;19.954;2024-01-10T10:00:22;100189.56;;;-2.46
75811;BMP280;64449;50.016;19.954;2024-01-10T10:02:50;100186.00;;;-2.37
75811;BMP280;64449;50.016;19.954;2024-01-10T10:05:17;100186.60;;;-2.28
75811;BMP280;64449;50.016;19.954;2024-01-10T10:07:51;100184.17;;;-2.19
75811;BMP280;64449;50.016;19.954;2024-01-10T10:10:18;100187.88;;;-2.06
75811;BMP280;64449;50.016;19.954;2024-01-10T10:12:48;100182.86;;;-1.85
75811;BMP280;64449;50.016;19.954;2024-01-10T10:15:18;100178.38;;;-1.61
75811;BMP280;64449;50.016;19.954;2024-01-10T10:17:45;100177.84;;;-1.35
75811;BMP280;64449;50.016;19.954;2024-01-10T10:20:34;100171.73;;;-1.12
75811;BMP280;64449;50.016;19.954;2024-01-10T10:23:04;100175.87;;;-0.83
75811;BMP280;64449;50.016;19.954;2024-01-10T10:25:33;100180.50;;;-0.59
75811;BMP280;64449;50.016;19.954;2024-01-10T10:27:59;100179.50;;;-0.33
75811;BMP280;64449;50.016;19.954;2024-01-10T10:30:30;100179.04;;;-0.02
75811;BMP280;64449;50.016;19.954;2024-01-10T10:32:56;100173.88;;;0.32
75811;BMP280;64449;50.016;19.954;2024-01-10T10:35:22;100176.77;;;0.68
75811;BMP280;64449;50.016;19.954;2024-01-10T10:37:49;100172.31;;;1.03
75811;BMP280;64449;50.016;19.954;2024-01-10T10:40:18;100171.42;;;1.32
75811;BMP280;64449;50.016;19.954;2024-01-10T10:42:49;100169.31;;;1.59
75811;BMP280;64449;50.016;19.954;2024-01-10T10:45:19;100172.27;;;1.88
75811;BMP280;64449;50.016;19.954;2024-01-10T10:47:48;100170.78;;;2.07
75811;BMP280;64449;50.016;19.954;2024-01-10T10:50:21;100168.08;;;2.25
75811;BMP280;64449;50.016;19.954;2024-01-10T10:52:49;100161.46;;;2.53
75811;BMP280;64449;50.016;19.954;2024-01-10T10:55:16;100158.00;;;2.81
75811;BMP280;64449;50.016;19.954;2024-01-10T10:57:45;100157.89;;;3.05
75811;BMP280;64449;50.016;19.954;2024-01-10T11:00:18;100158.08;;;3.28
75811;BMP280;64449;50.016;19.954;2024-01-10T11:02:44;100154.31;;;3.48
75811;BMP280;64449;50.016;19.954;2024-01-10T11:05:10;100150.55;;;3.63
75811;BMP280;64449;50.016;19.954;2024-01-10T11:07:40;100151.16;;;3.80
75811;BMP280;64449;50.016;19.954;2024-01-10T11:10:11;100152.08;;;3.97
75811;BMP280;64449;50.016;19.954;2024-01-10T11:15:43;100148.48;;;4.26
75811;BMP280;64449;50.016;19.954;2024-01-10T11:25:41;100146.75;;;4.92
75811;BMP280;64449;50.016;19.954;2024-01-10T11:28:07;100143.11;;;5.09
75811;BMP280;64449;50.016;19.954;2024-01-10T11:30:36;100141.38;;;5.18
75811;BMP280;64449;50.016;19.954;2024-01-10T11:33:25;100144.47;;;5.30
75811;BMP280;64449;50.016;19.954;2024-01-10T11:41:06;100149.48;;;5.56
75811;BMP280;64449;50.016;19.954;2024-01-10T11:43:33;100150.34;;;5.66
75811;BMP280;64449;50.016;19.954;2024-01-10T11:46:00;100147.76;;;5.75
75811;BMP280;64449;50.016;19.954;2024-01-10T11:48:27;100147.40;;;5.82
75811;BMP280;64449;50.016;19.954;2024-01-10T11:50:54;100142.39;;;5.85
75811;BMP280;64449;50.016;19.954;2024-01-10T11:56:12;100139.72;;;6.02
75811;BMP280;64449;50.016;19.954;2024-01-10T11:59:02;100136.95;;;6.15
75811;BMP280;64449;50.016;19.954;2024-01-10T12:01:32;100132.23;;;6.20
75811;BMP280;64449;50.016;19.954;2024-01-10T12:03:58;100133.90;;;6.18
75811;BMP280;64449;50.016;19.954;2024-01-10T12:06:23;100134.45;;;6.21
75811;BMP280;64449;50.016;19.954;2024-01-10T12:08:50;100136.84;;;6.21
75811;BMP280;64449;50.016;19.954;2024-01-10T12:11:16;100138.64;;;6.24
75811;BMP280;64449;50.016;19.954;2024-01-10T12:13:42;100136.83;;;6.23
75811;BMP280;64449;50.016;19.954;2024-01-10T12:16:08;100134.60;;;6.20
75811;BMP280;64449;50.016;19.954;2024-01-10T12:18:33;100135.55;;;6.20
75811;BMP280;64449;50.016;19.954;2024-01-10T12:20:59;100139.34;;;6.20
75811;BMP280;64449;50.016;19.954;2024-01-10T12:23:25;100136.26;;;6.24
75811;BMP280;64449;50.016;19.954;2024-01-10T12:25:56;100137.05;;;6.27
75811;BMP280;64449;50.016;19.954;2024-01-10T12:28:21;100135.49;;;6.33
75811;BMP280;64449;50.016;19.954;2024-01-10T12:30:47;100126.39;;;6.34
75811;BMP280;64449;50.016;19.954;2024-01-10T12:33:13;100121.09;;;6.34
75811;BMP280;64449;50.016;19.954;2024-01-10T12:35:38;100111.02;;;6.33
75811;BMP280;64449;50.016;19.954;2024-01-10T12:38:10;100107.20;;;6.31
75811;BMP280;64449;50.016;19.954;2024-01-10T12:40:36;100104.70;;;6.29
75811;BMP280;64449;50.016;19.954;2024-01-10T12:43:05;100096.39;;;6.18
75811;BMP280;64449;50.016;19.954;2024-01-10T12:45:31;100098.35;;;6.10
75811;BMP280;64449;50.016;19.954;2024-01-10T12:47:59;100095.26;;;5.97
75811;BMP280;64449;50.016;19.954;2024-01-10T12:50:25;100090.05;;;5.69
75811;BMP280;64449;50.016;19.954;2024-01-10T12:52:51;100085.58;;;5.45
75811;BMP280;64449;50.016;19.954;2024-01-10T12:55:17;100083.36;;;5.31
75811;BMP280;64449;50.016;19.954;2024-01-10T12:57:43;100081.20;;;5.22
75811;BMP280;64449;50.016;19.954;2024-01-10T13:00:09;100081.75;;;5.14
75811;BMP280;64449;50.016;19.954;2024-01-10T13:02:36;100077.64;;;4.98
75811;BMP280;64449;50.016;19.954;2024-01-10T13:05:06;100075.07;;;4.86
75811;BMP280;64449;50.016;19.954;2024-01-10T13:07:37;100072.66;;;4.67
75811;BMP280;64449;50.016;19.954;2024-01-10T13:10:03;100071.66;;;4.50
75811;BMP280;64449;50.016;19.954;2024-01-10T13:12:28;100071.46;;;4.40
75811;BMP280;64449;50.016;19.954;2024-01-10T13:14:54;100068.52;;;4.17
75811;BMP280;64449;50.016;19.954;2024-01-10T13:17:19;100065.27;;;4.04
75811;BMP280;64449;50.016;19.954;2024-01-10T13:19:47;100068.02;;;3.98
75811;BMP280;64449;50.016;19.954;2024-01-10T13:22:14;100071.42;;;3.80
75811;BMP280;64449;50.016;19.954;2024-01-10T13:24:44;100067.09;;;3.66
75811;BMP280;64449;50.016;19.954;2024-01-10T13:27:10;100065.02;;;3.65
75811;BMP280;64449;50.016;19.954;2024-01-10T13:29:36;100063.28;;;3.59
75811;BMP280;64449;50.016;19.954;2024-01-10T13:32:05;100064.73;;;3.47
75811;BMP280;64449;50.016;19.954;2024-01-10T13:34:31;100061.55;;;3.41
75811;BMP280;64449;50.016;19.954;2024-01-10T13:36:57;100064.42;;;3.34
75811;BMP280;64449;50.016;19.954;2024-01-10T13:39:23;100063.66;;;3.32
75811;BMP280;64449;50.016;19.954;2024-01-10T13:41:48;100064.40;;;3.33
75811;BMP280;64449;50.016;19.954;2024-01-10T13:44:14;100062.09;;;3.34
75811;BMP280;64449;50.016;19.954;2024-01-10T13:46:39;100064.08;;;3.35
75811;BMP280;64449;50.016;19.954;2024-01-10T13:49:05;100063.11;;;3.35
75811;BMP280;64449;50.016;19.954;2024-01-10T13:51:31;100058.34;;;3.28
75811;BMP280;64449;50.016;19.954;2024-01-10T13:53:57;100057.98;;;3.21